sensor_id;sensor_type;location;lat;lon;timestamp;temperature;humidity
42615;DHT22;28754;47.700;7.924;2022-12-11T00:00:48;-4.50;99.90
42615;DHT22;28754;47.700;7.924;2022-12-11T00:03:36;-4.40;99.90
42615;DHT22;28754;47.700;7.924;2022-12-11T00:06:23;-4.40;99.90
42615;DHT22;28754;47.700;7.924;2022-12-11T00:09:09;-4.30;99.90
42615;DHT22;28754;47.700;7.924;2022-12-11T00:11:56;-4.30;99.90
42615;DHT22;28754;47.700;7.924;2022-12-11T00:14:43;-4.30;99.90
42615;DHT22;28754;47.700;7.924;2022-12-11T00:17:30;-4.20;99.90
42615;DHT22;28754;47.700;7.924;2022-12-11T00:20:16;-4.20;99.90
42615;DHT22;28754;47.700;7.924;2022-12-11T00:23:03;-4.20;99.90
42615;DHT22;28754;47.700;7.924;2022-12-11T00:25:50;-4.20;99.90
42615;DHT22;28754;47.700;7.924;2022-12-11T00:28:37;-4.10;99.90
42615;DHT22;28754;47.700;7.924;2022-12-11T00:31:24;-4.10;99.90
42615;DHT22;28754;47.700;7.924;2022-12-11T00:34:11;-4.10;99.90
42615;DHT22;28754;47.700;7.924;2022-12-11T00:36:57;-4.10;99.90
42615;DHT22;28754;47.700;7.924;2022-12-11T00:39:44;-4.30;99.90
42615;DHT22;28754;47.700;7.924;2022-12-11T00:42:31;-4.40;99.90
42615;DHT22;28754;47.700;7.924;2022-12-11T00:45:17;-4.50;99.90
42615;DHT22;28754;47.700;7.924;2022-12-11T00:48:04;-4.40;99.90
42615;DHT22;28754;47.700;7.924;2022-12-11T00:50:51;-4.30;99.90
42615;DHT22;28754;47.700;7.924;2022-12-11T00:53:38;-4.20;99.90
42615;DHT22;28754;47.700;7.924;2022-12-11T00:56:25;-4.10;99.90
42615;DHT22;28754;47.700;7.924;2022-12-11T00:59:11;-4.00;99.90
42615;DHT22;28754;47.700;7.924;2022-12-11T01:01:58;-4.00;99.90
42615;DHT22;28754;47.700;7.924;2022-12-11T01:04:45;-3.90;99.90
42615;DHT22;28754;47.700;7.924;2022-12-11T01:07:32;-3.90;99.90
42615;DHT22;28754;47.700;7.924;2022-12-11T01:10:19;-3.90;99.90
42615;DHT22;28754;47.700;7.924;2022-12-11T01:13:09;-3.90;99.90
42615;DHT22;28754;47.700;7.924;2022-12-11T01:15:57;-4.00;99.90
42615;DHT22;28754;47.700;7.924;2022-12-11T01:18:44;-4.00;99.90
42615;DHT22;28754;47.700;7.924;2022-12-11T01:21:30;-4.00;99.90
42615;DHT22;28754;47.700;7.924;2022-12-11T01:24:17;-3.90;99.90
42615;DHT22;28754;47.700;7.924;2022-12-11T01:27:04;-3.80;99.90
42615;DHT22;28754;47.700;7.924;2022-12-11T01:29:51;-3.70;99.90
42615;DHT22;28754;47.700;7.924;2022-12-11T01:32:37;-3.70;99.90
42615;DHT22;28754;47.700;7.924;2022-12-11T01:35:24;-3.70;99.90
42615;DHT22;28754;47.700;7.924;2022-12-11T01:38:11;-3.70;99.90
42615;DHT22;28754;47.700;7.924;2022-12-11T01:40:57;-3.60;99.90
42615;DHT22;28754;47.700;7.924;2022-12-11T01:43:57;-3.60;99.90
42615;DHT22;28754;47.700;7.924;2022-12-11T01:46:44;-3.70;99.90
42615;DHT22;28754;47.700;7.924;2022-12-11T01:49:31;-3.80;99.90
42615;DHT22;28754;47.700;7.924;2022-12-11T01:52:20;-3.80;99.90
42615;DHT22;28754;47.700;7.924;2022-12-11T01:55:08;-3.80;99.90
42615;DHT22;28754;47.700;7.924;2022-12-11T01:57:55;-3.90;99.90
42615;DHT22;28754;47.700;7.924;2022-12-11T02:00:41;-3.80;99.90
42615;DHT22;28754;47.700;7.924;2022-12-11T02:03:28;-3.90;99.90
42615;DHT22;28754;47.700;7.924;2022-12-11T02:06:38;-4.00;99.90
42615;DHT22;28754;47.700;7.924;2022-12-11T02:09:31;-3.90;99.90
42615;DHT22;28754;47.700;7.924;2022-12-11T02:12:34;-4.00;99.90
42615;DHT22;28754;47.700;7.924;2022-12-11T02:15:35;-4.00;99.90
42615;DHT22;28754;47.700;7.924;2022-12-11T02:18:31;-4.00;99.90
42615;DHT22;28754;47.700;7.924;2022-12-11T02:21:47;-4.00;99.90
42615;DHT22;28754;47.700;7.924;2022-12-11T02:24:50;-4.10;99.90
42615;DHT22;28754;47.700;7.924;2022-12-11T02:28:01;-4.10;99.90
42615;DHT22;28754;47.700;7.924;2022-12-11T02:31:22;-4.20;99.90
42615;DHT22;28754;47.700;7.924;2022-12-11T02:34:41;-4.10;99.90
42615;DHT22;28754;47.700;7.924;2022-12-11T02:37:31;-4.10;99.90
42615;DHT22;28754;47.700;7.924;2022-12-11T02:40:25;-4.20;99.90
42615;DHT22;28754;47.700;7.924;2022-12-11T02:43:16;-4.20;99.90
42615;DHT22;28754;47.700;7.924;2022-12-11T02:46:06;-4.30;99.90
42615;DHT22;28754;47.700;7.924;2022-12-11T02:48:54;-4.30;99.90
42615;DHT22;28754;47.700;7.924;2022-12-11T02:51:42;-4.40;99.90
42615;DHT22;28754;47.700;7.924;2022-12-11T02:54:33;-4.40;99.90
42615;DHT22;28754;47.700;7.924;2022-12-11T02:57:29;-4.40;99.90
42615;DHT22;28754;47.700;7.924;2022-12-11T03:05:49;-4.50;99.90
42615;DHT22;28754;47.700;7.924;2022-12-11T03:09:58;-4.50;99.90
42615;DHT22;28754;47.700;7.924;2022-12-11T03:12:48;-4.40;99.90
42615;DHT22;28754;47.700;7.924;2022-12-11T03:15:50;-4.40;99.90
42615;DHT22;28754;47.700;7.924;2022-12-11T03:19:29;-4.40;99.90
42615;DHT22;28754;47.700;7.924;2022-12-11T03:25:43;-4.40;99.90
42615;DHT22;28754;47.700;7.924;2022-12-11T03:31:36;-4.40;99.90
42615;DHT22;28754;47.700;7.924;2022-12-11T03:34:41;-4.40;99.90
42615;DHT22;28754;47.700;7.924;2022-12-11T03:37:34;-4.40;99.90
42615;DHT22;28754;47.700;7.924;2022-12-11T03:40:25;-4.40;99.90
42615;DHT22;28754;47.700;7.924;2022-12-11T03:43:16;-4.40;99.90
42615;DHT22;28754;47.700;7.924;2022-12-11T03:46:07;-4.40;99.90
42615;DHT22;28754;47.700;7.924;2022-12-11T03:49:02;-4.30;99.90
42615;DHT22;28754;47.700;7.924;2022-12-11T03:51:54;-4.30;99.90
42615;DHT22;28754;47.700;7.924;2022-12-11T03:54:45;-4.40;99.90
42615;DHT22;28754;47.700;7.924;2022-12-11T03:57:36;-4.40;99.90
42615;DHT22;28754;47.700;7.924;2022-12-11T04:00:23;-4.40;99.90
42615;DHT22;28754;47.700;7.924;2022-12-11T04:03:10;-4.40;99.90
42615;DHT22;28754;47.700;7.924;2022-12-11T04:06:01;-4.40;99.90
42615;DHT22;28754;47.700;7.924;2022-12-11T04:08:48;-4.40;99.90
42615;DHT22;28754;47.700;7.924;2022-12-11T04:11:35;-4.40;99.90
42615;DHT22;28754;47.700;7.924;2022-12-11T04:14:21;-4.50;99.90
42615;DHT22;28754;47.700;7.924;2022-12-11T04:17:31;-4.60;99.90
42615;DHT22;28754;47.700;7.924;2022-12-11T04:20:38;-4.70;99.90
42615;DHT22;28754;47.700;7.924;2022-12-11T04:23:43;-4.70;99.90
42615;DHT22;28754;47.700;7.924;2022-12-11T04:26:48;-4.70;99.90
42615;DHT22;28754;47.700;7.924;2022-12-11T04:29:34;-4.80;99.90
42615;DHT22;28754;47.700;7.924;2022-12-11T04:32:21;-4.90;99.90
42615;DHT22;28754;47.700;7.924;2022-12-11T04:35:09;-4.90;99.90
42615;DHT22;28754;47.700;7.924;2022-12-11T04:37:57;-4.90;99.90
42615;DHT22;28754;47.700;7.924;2022-12-11T04:40:44;-4.90;99.90
42615;DHT22;28754;47.700;7.924;2022-12-11T04:43:31;-5.00;99.90
42615;DHT22;28754;47.700;7.924;2022-12-11T04:46:21;-5.20;99.90
42615;DHT22;28754;47.700;7.924;2022-12-11T04:49:09;-5.20;99.90
42615;DHT22;28754;47.700;7.924;2022-12-11T04:51:56;-5.20;99.90
42615;DHT22;28754;47.700;7.924;2022-12-11T04:54:45;-5.10;99.90
42615;DHT22;28754;47.700;7.924;2022-12-11T04:57:33;-5.10;99.90
42615;DHT22;28754;47.700;7.924;2022-12-11T05:04:49;-5.20;99.90
42615;DHT22;28754;47.700;7.924;2022-12-11T05:07:36;-5.60;99.90
42615;DHT22;28754;47.700;7.924;2022-12-11T05:10:23;-5.80;99.90
42615;DHT22;28754;47.700;7.924;2022-12-11T05:13:10;-5.80;99.90
42615;DHT22;28754;47.700;7.924;2022-12-11T05:15:57;-5.70;99.90
42615;DHT22;28754;47.700;7.924;2022-12-11T05:18:44;-5.70;99.90
42615;DHT22;28754;47.700;7.924;2022-12-11T05:21:32;-5.70;99.90
42615;DHT22;28754;47.700;7.924;2022-12-11T05:24:19;-5.60;99.90
42615;DHT22;28754;47.700;7.924;2022-12-11T05:27:06;-5.80;99.90
42615;DHT22;28754;47.700;7.924;2022-12-11T05:29:52;-5.90;99.90
42615;DHT22;28754;47.700;7.924;2022-12-11T05:32:39;-5.80;99.90
42615;DHT22;28754;47.700;7.924;2022-12-11T05:35:26;-5.70;99.90
42615;DHT22;28754;47.700;7.924;2022-12-11T05:38:12;-5.80;99.90
42615;DHT22;28754;47.700;7.924;2022-12-11T05:41:01;-5.80;99.90
42615;DHT22;28754;47.700;7.924;2022-12-11T05:43:50;-5.80;99.90
42615;DHT22;28754;47.700;7.924;2022-12-11T05:46:38;-6.10;99.90
42615;DHT22;28754;47.700;7.924;2022-12-11T05:49:25;-6.00;99.90
42615;DHT22;28754;47.700;7.924;2022-12-11T05:52:12;-6.10;99.90
42615;DHT22;28754;47.700;7.924;2022-12-11T05:54:58;-5.90;99.90
42615;DHT22;28754;47.700;7.924;2022-12-11T05:57:45;-6.00;99.90
42615;DHT22;28754;47.700;7.924;2022-12-11T06:00:32;-5.90;99.90
42615;DHT22;28754;47.700;7.924;2022-12-11T06:03:19;-5.90;99.90
42615;DHT22;28754;47.700;7.924;2022-12-11T06:06:06;-5.90;99.90
42615;DHT22;28754;47.700;7.924;2022-12-11T06:08:56;-5.80;99.90
42615;DHT22;28754;47.700;7.924;2022-12-11T06:11:43;-5.70;99.90
42615;DHT22;28754;47.700;7.924;2022-12-11T06:14:30;-5.80;99.90
42615;DHT22;28754;47.700;7.924;2022-12-11T06:17:17;-5.90;99.90
42615;DHT22;28754;47.700;7.924;2022-12-11T06:20:04;-6.00;99.90
42615;DHT22;28754;47.700;7.924;2022-12-11T06:22:51;-6.00;99.90
42615;DHT22;28754;47.700;7.924;2022-12-11T06:25:38;-5.90;99.90
42615;DHT22;28754;47.700;7.924;2022-12-11T06:28:25;-6.00;99.90
42615;DHT22;28754;47.700;7.924;2022-12-11T06:31:12;-6.00;99.90
42615;DHT22;28754;47.700;7.924;2022-12-11T06:33:59;-5.90;99.90
42615;DHT22;28754;47.700;7.924;2022-12-11T06:36:46;-5.90;99.90
42615;DHT22;28754;47.700;7.924;2022-12-11T06:39:32;-5.90;99.90
42615;DHT22;28754;47.700;7.924;2022-12-11T06:42:22;-5.80;99.90
42615;DHT22;28754;47.700;7.924;2022-12-11T06:45:23;-5.90;99.90
42615;DHT22;28754;47.700;7.924;2022-12-11T06:48:22;-5.90;99.90
42615;DHT22;28754;47.700;7.924;2022-12-11T06:51:36;-5.80;99.90
42615;DHT22;28754;47.700;7.924;2022-12-11T06:54:37;-5.60;99.90
42615;DHT22;28754;47.700;7.924;2022-12-11T06:57:37;-5.70;99.90
42615;DHT22;28754;47.700;7.924;2022-12-11T07:01:23;-5.70;99.90
42615;DHT22;28754;47.700;7.924;2022-12-11T07:04:18;-5.70;99.90
42615;DHT22;28754;47.700;7.924;2022-12-11T07:07:38;-5.70;99.90
42615;DHT22;28754;47.700;7.924;2022-12-11T07:10:28;-5.70;99.90
42615;DHT22;28754;47.700;7.924;2022-12-11T07:13:16;-5.80;99.90
42615;DHT22;28754;47.700;7.924;2022-12-11T07:16:10;-5.90;99.90
42615;DHT22;28754;47.700;7.924;2022-12-11T07:19:08;-5.70;99.90
42615;DHT22;28754;47.700;7.924;2022-12-11T07:22:32;-5.60;99.90
42615;DHT22;28754;47.700;7.924;2022-12-11T07:25:28;-5.40;99.90
42615;DHT22;28754;47.700;7.924;2022-12-11T07:28:34;-5.40;99.90
42615;DHT22;28754;47.700;7.924;2022-12-11T07:31:26;-5.40;99.90
42615;DHT22;28754;47.700;7.924;2022-12-11T07:34:21;-4.90;99.90
42615;DHT22;28754;47.700;7.924;2022-12-11T07:37:20;-5.00;99.90
42615;DHT22;28754;47.700;7.924;2022-12-11T07:40:11;-5.00;99.90
42615;DHT22;28754;47.700;7.924;2022-12-11T07:43:16;-5.00;99.90
42615;DHT22;28754;47.700;7.924;2022-12-11T07:46:06;-5.00;99.90
42615;DHT22;28754;47.700;7.924;2022-12-11T07:48:58;-5.00;99.90
42615;DHT22;28754;47.700;7.924;2022-12-11T07:51:56;-4.80;99.90
42615;DHT22;28754;47.700;7.924;2022-12-11T07:55:25;-4.70;99.90
42615;DHT22;28754;47.700;7.924;2022-12-11T07:58:25;-4.60;99.90
42615;DHT22;28754;47.700;7.924;2022-12-11T08:01:34;-4.40;99.90
42615;DHT22;28754;47.700;7.924;2022-12-11T08:04:29;-4.40;99.90
42615;DHT22;28754;47.700;7.924;2022-12-11T08:08:07;-4.40;99.90
42615;DHT22;28754;47.700;7.924;2022-12-11T08:11:06;-4.20;99.90
42615;DHT22;28754;47.700;7.924;2022-12-11T08:14:19;-4.00;99.90
42615;DHT22;28754;47.700;7.924;2022-12-11T08:17:16;-3.70;99.90
42615;DHT22;28754;47.700;7.924;2022-12-11T08:20:44;-2.20;99.90
42615;DHT22;28754;47.700;7.924;2022-12-11T08:23:39;3.00;99.90
42615;DHT22;28754;47.700;7.924;2022-12-11T08:26:30;6.60;99.90
42615;DHT22;28754;47.700;7.924;2022-12-11T08:29:19;8.90;99.90
42615;DHT22;28754;47.700;7.924;2022-12-11T08:32:34;11.20;99.90
42615;DHT22;28754;47.700;7.924;2022-12-11T08:35:39;12.50;99.90
42615;DHT22;28754;47.700;7.924;2022-12-11T08:38:29;12.50;99.90
42615;DHT22;28754;47.700;7.924;2022-12-11T08:41:27;14.80;99.90
42615;DHT22;28754;47.700;7.924;2022-12-11T08:44:54;14.90;99.60
42615;DHT22;28754;47.700;7.924;2022-12-11T08:49:03;15.30;99.50
42615;DHT22;28754;47.700;7.924;2022-12-11T09:19:12;22.90;86.80
42615;DHT22;28754;47.700;7.924;2022-12-11T09:22:00;24.20;84.20
42615;DHT22;28754;47.700;7.924;2022-12-11T09:24:47;25.10;82.90
42615;DHT22;28754;47.700;7.924;2022-12-11T09:27:34;23.50;80.50
42615;DHT22;28754;47.700;7.924;2022-12-11T09:30:21;24.30;80.80
42615;DHT22;28754;47.700;7.924;2022-12-11T09:33:07;24.20;79.70
42615;DHT22;28754;47.700;7.924;2022-12-11T09:36:02;24.60;80.50
42615;DHT22;28754;47.700;7.924;2022-12-11T09:38:50;25.00;78.90
42615;DHT22;28754;47.700;7.924;2022-12-11T09:41:38;24.20;78.70
42615;DHT22;28754;47.700;7.924;2022-12-11T09:44:44;24.10;78.70
42615;DHT22;28754;47.700;7.924;2022-12-11T09:47:35;23.70;78.80
42615;DHT22;28754;47.700;7.924;2022-12-11T09:50:29;23.60;78.60
42615;DHT22;28754;47.700;7.924;2022-12-11T09:53:25;22.70;79.30
42615;DHT22;28754;47.700;7.924;2022-12-11T09:56:35;23.60;79.40
42615;DHT22;28754;47.700;7.924;2022-12-11T10:06:45;21.60;79.30
42615;DHT22;28754;47.700;7.924;2022-12-11T10:14:30;23.00;79.70
42615;DHT22;28754;47.700;7.924;2022-12-11T10:17:29;23.80;78.20
42615;DHT22;28754;47.700;7.924;2022-12-11T10:20:27;24.40;77.40
42615;DHT22;28754;47.700;7.924;2022-12-11T10:23:22;24.10;76.20
42615;DHT22;28754;47.700;7.924;2022-12-11T10:26:19;24.00;77.10
42615;DHT22;28754;47.700;7.924;2022-12-11T10:29:14;24.80;78.20
42615;DHT22;28754;47.700;7.924;2022-12-11T10:32:02;23.80;76.80
42615;DHT22;28754;47.700;7.924;2022-12-11T10:35:00;24.60;77.70
42615;DHT22;28754;47.700;7.924;2022-12-11T10:37:53;23.20;76.80
42615;DHT22;28754;47.700;7.924;2022-12-11T10:40:46;24.40;77.00
42615;DHT22;28754;47.700;7.924;2022-12-11T10:43:50;23.60;76.90
42615;DHT22;28754;47.700;7.924;2022-12-11T10:46:38;23.50;76.70
42615;DHT22;28754;47.700;7.924;2022-12-11T10:49:30;24.00;77.30
42615;DHT22;28754;47.700;7.924;2022-12-11T10:52:21;24.80;76.00
42615;DHT22;28754;47.700;7.924;2022-12-11T10:55:23;24.00;75.80
42615;DHT22;28754;47.700;7.924;2022-12-11T10:58:19;24.40;76.70
42615;DHT22;28754;47.700;7.924;2022-12-11T11:01:14;24.90;75.10
42615;DHT22;28754;47.700;7.924;2022-12-11T11:04:14;23.80;74.60
42615;DHT22;28754;47.700;7.924;2022-12-11T11:07:14;24.50;75.70
42615;DHT22;28754;47.700;7.924;2022-12-11T11:13:02;23.90;74.70
42615;DHT22;28754;47.700;7.924;2022-12-11T11:15:57;22.20;75.60
42615;DHT22;28754;47.700;7.924;2022-12-11T11:18:57;21.60;76.40
42615;DHT22;28754;47.700;7.924;2022-12-11T11:21:53;20.40;78.80
42615;DHT22;28754;47.700;7.924;2022-12-11T11:24:57;21.70;79.20
42615;DHT22;28754;47.700;7.924;2022-12-11T11:28:01;22.30;76.70
42615;DHT22;28754;47.700;7.924;2022-12-11T11:31:11;23.00;76.50
42615;DHT22;28754;47.700;7.924;2022-12-11T11:34:02;25.50;75.40
42615;DHT22;28754;47.700;7.924;2022-12-11T11:36:57;25.50;74.60
42615;DHT22;28754;47.700;7.924;2022-12-11T11:39:46;25.20;75.00
42615;DHT22;28754;47.700;7.924;2022-12-11T11:46:25;21.90;76.30
42615;DHT22;28754;47.700;7.924;2022-12-11T11:49:49;22.30;77.50
42615;DHT22;28754;47.700;7.924;2022-12-11T11:56:28;15.00;86.50
42615;DHT22;28754;47.700;7.924;2022-12-11T12:03:00;13.90;87.40
42615;DHT22;28754;47.700;7.924;2022-12-11T12:06:09;13.80;89.40
42615;DHT22;28754;47.700;7.924;2022-12-11T12:15:44;20.20;79.00
42615;DHT22;28754;47.700;7.924;2022-12-11T12:18:44;19.00;81.60
42615;DHT22;28754;47.700;7.924;2022-12-11T12:22:06;18.00;82.30
42615;DHT22;28754;47.700;7.924;2022-12-11T12:25:30;20.40;80.00
42615;DHT22;28754;47.700;7.924;2022-12-11T12:39:07;19.50;79.10
42615;DHT22;28754;47.700;7.924;2022-12-11T12:44:23;18.60;79.60
42615;DHT22;28754;47.700;7.924;2022-12-11T12:47:14;19.60;79.60
42615;DHT22;28754;47.700;7.924;2022-12-11T12:50:10;20.40;78.90
42615;DHT22;28754;47.700;7.924;2022-12-11T12:53:00;18.10;81.30
42615;DHT22;28754;47.700;7.924;2022-12-11T12:55:48;16.50;83.20
42615;DHT22;28754;47.700;7.924;2022-12-11T12:58:40;17.50;81.50
42615;DHT22;28754;47.700;7.924;2022-12-11T13:01:29;16.20;82.90
42615;DHT22;28754;47.700;7.924;2022-12-11T13:04:53;15.90;84.20
42615;DHT22;28754;47.700;7.924;2022-12-11T13:07:49;15.60;83.90
42615;DHT22;28754;47.700;7.924;2022-12-11T13:10:41;13.90;85.90
42615;DHT22;28754;47.700;7.924;2022-12-11T13:13:33;12.30;89.60
42615;DHT22;28754;47.700;7.924;2022-12-11T13:16:35;10.50;90.60
42615;DHT22;28754;47.700;7.924;2022-12-11T13:19:27;9.20;92.60
42615;DHT22;28754;47.700;7.924;2022-12-11T13:25:19;7.00;94.60
42615;DHT22;28754;47.700;7.924;2022-12-11T13:28:28;6.10;95.90
42615;DHT22;28754;47.700;7.924;2022-12-11T13:31:38;5.80;96.30
42615;DHT22;28754;47.700;7.924;2022-12-11T13:34:45;5.70;96.90
42615;DHT22;28754;47.700;7.924;2022-12-11T13:38:11;5.70;97.30
42615;DHT22;28754;47.700;7.924;2022-12-11T13:50:06;3.30;99.90
42615;DHT22;28754;47.700;7.924;2022-12-11T13:53:02;2.00;99.90
42615;DHT22;28754;47.700;7.924;2022-12-11T14:26:48;0.10;99.90
42615;DHT22;28754;47.700;7.924;2022-12-11T14:44:57;2.00;99.90
42615;DHT22;28754;47.700;7.924;2022-12-11T15:05:12;1.70;99.90
42615;DHT22;28754;47.700;7.924;2022-12-11T15:08:23;1.10;99.90
42615;DHT22;28754;47.700;7.924;2022-12-11T15:11:51;1.30;99.90
42615;DHT22;28754;47.700;7.924;2022-12-11T15:14:55;1.40;99.90
42615;DHT22;28754;47.700;7.924;2022-12-11T15:18:19;1.30;99.90
42615;DHT22;28754;47.700;7.924;2022-12-11T15:21:38;1.20;99.90
42615;DHT22;28754;47.700;7.924;2022-12-11T15:24:45;0.90;99.90
42615;DHT22;28754;47.700;7.924;2022-12-11T15:27:56;0.70;99.90
42615;DHT22;28754;47.700;7.924;2022-12-11T15:39:24;0.50;99.90
42615;DHT22;28754;47.700;7.924;2022-12-11T15:43:40;0.40;99.90
42615;DHT22;28754;47.700;7.924;2022-12-11T15:55:21;0.50;99.90
42615;DHT22;28754;47.700;7.924;2022-12-11T16:20:55;-0.50;99.90
42615;DHT22;28754;47.700;7.924;2022-12-11T16:24:34;-0.40;99.90
42615;DHT22;28754;47.700;7.924;2022-12-11T16:28:09;-0.10;99.90
42615;DHT22;28754;47.700;7.924;2022-12-11T16:35:30;-0.30;99.90
42615;DHT22;28754;47.700;7.924;2022-12-11T16:55:53;-0.90;99.90
42615;DHT22;28754;47.700;7.924;2022-12-11T16:58:43;-0.80;99.90
42615;DHT22;28754;47.700;7.924;2022-12-11T17:01:35;-1.10;99.90
42615;DHT22;28754;47.700;7.924;2022-12-11T17:04:30;-1.30;99.90
42615;DHT22;28754;47.700;7.924;2022-12-11T17:07:17;-1.10;99.90
42615;DHT22;28754;47.700;7.924;2022-12-11T17:10:05;-1.20;99.90
42615;DHT22;28754;47.700;7.924;2022-12-11T17:12:55;-1.10;99.90
42615;DHT22;28754;47.700;7.924;2022-12-11T17:15:42;-1.10;99.90
42615;DHT22;28754;47.700;7.924;2022-12-11T17:18:43;-1.20;99.90
42615;DHT22;28754;47.700;7.924;2022-12-11T17:22:08;-1.50;99.90
42615;DHT22;28754;47.700;7.924;2022-12-11T17:25:03;-1.70;99.90
42615;DHT22;28754;47.700;7.924;2022-12-11T17:27:50;-1.90;99.90
42615;DHT22;28754;47.700;7.924;2022-12-11T17:30:42;-1.80;99.90
42615;DHT22;28754;47.700;7.924;2022-12-11T17:36:35;-2.10;99.90
42615;DHT22;28754;47.700;7.924;2022-12-11T17:42:13;-2.20;99.90
42615;DHT22;28754;47.700;7.924;2022-12-11T17:45:54;-2.40;99.90
42615;DHT22;28754;47.700;7.924;2022-12-11T17:49:11;-2.20;99.90
42615;DHT22;28754;47.700;7.924;2022-12-11T17:52:01;-2.50;99.90
42615;DHT22;28754;47.700;7.924;2022-12-11T17:55:26;-2.60;99.90
42615;DHT22;28754;47.700;7.924;2022-12-11T17:58:22;-2.60;99.90
42615;DHT22;28754;47.700;7.924;2022-12-11T18:05:23;-2.70;99.90
42615;DHT22;28754;47.700;7.924;2022-12-11T18:21:10;-3.10;99.90
42615;DHT22;28754;47.700;7.924;2022-12-11T18:24:02;-3.00;99.90
42615;DHT22;28754;47.700;7.924;2022-12-11T18:31:22;-3.00;99.90
42615;DHT22;28754;47.700;7.924;2022-12-11T18:34:12;-3.00;99.90
42615;DHT22;28754;47.700;7.924;2022-12-11T18:37:06;-3.10;99.90
42615;DHT22;28754;47.700;7.924;2022-12-11T18:39:59;-3.20;99.90
42615;DHT22;28754;47.700;7.924;2022-12-11T18:43:07;-3.20;99.90
42615;DHT22;28754;47.700;7.924;2022-12-11T18:45:57;-3.20;99.90
42615;DHT22;28754;47.700;7.924;2022-12-11T18:48:53;-3.30;99.90
42615;DHT22;28754;47.700;7.924;2022-12-11T18:51:47;-3.40;99.90
42615;DHT22;28754;47.700;7.924;2022-12-11T18:54:40;-3.50;99.90
42615;DHT22;28754;47.700;7.924;2022-12-11T19:01:14;-3.50;99.90
42615;DHT22;28754;47.700;7.924;2022-12-11T19:04:07;-3.50;99.90
42615;DHT22;28754;47.700;7.924;2022-12-11T19:07:24;-3.50;99.90
42615;DHT22;28754;47.700;7.924;2022-12-11T19:10:18;-3.40;99.90
42615;DHT22;28754;47.700;7.924;2022-12-11T19:22:24;-3.50;99.90
42615;DHT22;28754;47.700;7.924;2022-12-11T19:25:11;-3.60;99.90
42615;DHT22;28754;47.700;7.924;2022-12-11T19:28:01;-3.70;99.90
42615;DHT22;28754;47.700;7.924;2022-12-11T19:31:19;-3.80;99.90
42615;DHT22;28754;47.700;7.924;2022-12-11T19:35:06;-3.80;99.90
42615;DHT22;28754;47.700;7.924;2022-12-11T19:38:17;-3.80;99.90
42615;DHT22;28754;47.700;7.924;2022-12-11T19:42:10;-3.90;99.90
42615;DHT22;28754;47.700;7.924;2022-12-11T19:49:43;-3.90;99.90
42615;DHT22;28754;47.700;7.924;2022-12-11T19:53:11;-4.00;99.90
42615;DHT22;28754;47.700;7.924;2022-12-11T19:56:00;-4.00;99.90
42615;DHT22;28754;47.700;7.924;2022-12-11T19:58:50;-4.00;99.90
42615;DHT22;28754;47.700;7.924;2022-12-11T20:01:46;-4.10;99.90
42615;DHT22;28754;47.700;7.924;2022-12-11T20:05:18;-4.10;99.90
42615;DHT22;28754;47.700;7.924;2022-12-11T20:08:42;-4.00;99.90
42615;DHT22;28754;47.700;7.924;2022-12-11T20:20:48;-4.00;99.90
42615;DHT22;28754;47.700;7.924;2022-12-11T20:24:30;-4.20;99.90
42615;DHT22;28754;47.700;7.924;2022-12-11T20:27:29;-4.20;99.90
42615;DHT22;28754;47.700;7.924;2022-12-11T20:35:12;-4.20;99.90
42615;DHT22;28754;47.700;7.924;2022-12-11T20:37:59;-4.10;99.90
42615;DHT22;28754;47.700;7.924;2022-12-11T20:40:46;-4.10;99.90
42615;DHT22;28754;47.700;7.924;2022-12-11T20:43:32;-4.20;99.90
42615;DHT22;28754;47.700;7.924;2022-12-11T20:46:21;-4.20;99.90
42615;DHT22;28754;47.700;7.924;2022-12-11T20:49:10;-4.10;99.90
42615;DHT22;28754;47.700;7.924;2022-12-11T20:51:58;-4.00;99.90
42615;DHT22;28754;47.700;7.924;2022-12-11T20:54:47;-4.10;99.90
42615;DHT22;28754;47.700;7.924;2022-12-11T20:57:35;-4.20;99.90
42615;DHT22;28754;47.700;7.924;2022-12-11T21:00:23;-4.10;99.90
42615;DHT22;28754;47.700;7.924;2022-12-11T21:03:10;-4.10;99.90
42615;DHT22;28754;47.700;7.924;2022-12-11T21:06:22;-4.20;99.90
42615;DHT22;28754;47.700;7.924;2022-12-11T21:10:17;-4.20;99.90
42615;DHT22;28754;47.700;7.924;2022-12-11T21:47:36;-4.30;99.90
42615;DHT22;28754;47.700;7.924;2022-12-11T21:50:22;-4.20;99.90
42615;DHT22;28754;47.700;7.924;2022-12-11T21:53:09;-4.20;99.90
42615;DHT22;28754;47.700;7.924;2022-12-11T21:55:56;-4.30;99.90
42615;DHT22;28754;47.700;7.924;2022-12-11T21:58:43;-4.30;99.90
42615;DHT22;28754;47.700;7.924;2022-12-11T22:01:39;-4.30;99.90
42615;DHT22;28754;47.700;7.924;2022-12-11T22:04:27;-4.30;99.90
42615;DHT22;28754;47.700;7.924;2022-12-11T22:07:14;-4.30;99.90
42615;DHT22;28754;47.700;7.924;2022-12-11T22:10:02;-4.30;99.90
42615;DHT22;28754;47.700;7.924;2022-12-11T22:12:49;-4.30;99.90
42615;DHT22;28754;47.700;7.924;2022-12-11T22:15:36;-4.30;99.90
42615;DHT22;28754;47.700;7.924;2022-12-11T22:18:22;-4.30;99.90
42615;DHT22;28754;47.700;7.924;2022-12-11T22:21:12;-4.30;99.90
42615;DHT22;28754;47.700;7.924;2022-12-11T22:23:59;-4.30;99.90
42615;DHT22;28754;47.700;7.924;2022-12-11T22:26:47;-4.30;99.90
42615;DHT22;28754;47.700;7.924;2022-12-11T22:29:33;-4.30;99.90
42615;DHT22;28754;47.700;7.924;2022-12-11T22:32:20;-4.40;99.90
42615;DHT22;28754;47.700;7.924;2022-12-11T22:35:08;-4.40;99.90
42615;DHT22;28754;47.700;7.924;2022-12-11T22:37:55;-4.40;99.90
42615;DHT22;28754;47.700;7.924;2022-12-11T22:40:41;-4.40;99.90
42615;DHT22;28754;47.700;7.924;2022-12-11T22:43:28;-4.40;99.90
42615;DHT22;28754;47.700;7.924;2022-12-11T22:46:16;-4.40;99.90
42615;DHT22;28754;47.700;7.924;2022-12-11T22:49:04;-4.40;99.90
42615;DHT22;28754;47.700;7.924;2022-12-11T22:51:51;-4.40;99.90
42615;DHT22;28754;47.700;7.924;2022-12-11T22:54:38;-4.40;99.90
42615;DHT22;28754;47.700;7.924;2022-12-11T22:57:26;-4.40;99.90
42615;DHT22;28754;47.700;7.924;2022-12-11T23:00:13;-4.40;99.90
42615;DHT22;28754;47.700;7.924;2022-12-11T23:03:00;-4.40;99.90
42615;DHT22;28754;47.700;7.924;2022-12-11T23:05:48;-4.40;99.90
42615;DHT22;28754;47.700;7.924;2022-12-11T23:08:35;-4.50;99.90
42615;DHT22;28754;47.700;7.924;2022-12-11T23:11:33;-4.60;99.90
42615;DHT22;28754;47.700;7.924;2022-12-11T23:14:21;-4.60;99.90
42615;DHT22;28754;47.700;7.924;2022-12-11T23:17:08;-4.60;99.90
42615;DHT22;28754;47.700;7.924;2022-12-11T23:19:55;-4.60;99.90
42615;DHT22;28754;47.700;7.924;2022-12-11T23:22:42;-4.60;99.90
42615;DHT22;28754;47.700;7.924;2022-12-11T23:25:28;-4.60;99.90
42615;DHT22;28754;47.700;7.924;2022-12-11T23:28:15;-4.60;99.90
42615;DHT22;28754;47.700;7.924;2022-12-11T23:31:02;-4.60;99.90
42615;DHT22;28754;47.700;7.924;2022-12-11T23:33:50;-4.50;99.90
42615;DHT22;28754;47.700;7.924;2022-12-11T23:36:37;-4.50;99.90
42615;DHT22;28754;47.700;7.924;2022-12-11T23:39:24;-4.60;99.90
42615;DHT22;28754;47.700;7.924;2022-12-11T23:42:11;-4.60;99.90
42615;DHT22;28754;47.700;7.924;2022-12-11T23:44:57;-4.70;99.90
42615;DHT22;28754;47.700;7.924;2022-12-11T23:47:44;-4.70;99.90
42615;DHT22;28754;47.700;7.924;2022-12-11T23:50:31;-4.60;99.90
42615;DHT22;28754;47.700;7.924;2022-12-11T23:53:18;-4.70;99.90